ADDS METAR Data INFO
IDs: Format: Raw Decoded Include TAF

Data at: 1204 UTC 21 Jun 2018

KMPZ 211155Z AUTO 20003KT 5SM BR OVC008 20/20 A2974 RMK AO2 P0001
KMPZ 211135Z AUTO 18004KT 7SM OVC008 20/20 A2974 RMK AO2 P0001
KMPZ 211115Z AUTO 18004KT 5SM BR OVC006 20/20 A2974 RMK AO2 P0001
KMPZ 211055Z AUTO 17003KT 5SM BR OVC006 20/20 A2973 RMK AO2
KMPZ 211035Z AUTO 16004KT 5SM BR OVC006 20/20 A2972 RMK AO2
KMPZ 211015Z AUTO 16004KT 5SM BR OVC006 20/20 A2972 RMK AO2
KMPZ 210955Z AUTO 19004KT 4SM BR OVC008 20/20 A2972 RMK AO2
KMPZ 210935Z AUTO 18004KT 4SM BR OVC008 20/20 A2973 RMK AO2
KMPZ 210915Z AUTO 19003KT 3SM BR BKN008 20/20 A2973 RMK AO2
KMPZ 210855Z AUTO 18003KT 3SM BR BKN008 20/20 A2973 RMK AO2
KMPZ 210835Z AUTO 19004KT 3SM BR OVC008 20/20 A2973 RMK AO2
KMPZ 210815Z AUTO 20004KT 3SM BR SCT003 BKN008 OVC035 20/20 A2974 RMK AO2
KMPZ 210755Z AUTO 20004KT 3SM BR BKN003 OVC006 20/20 A2975 RMK AO2 P0001
KMPZ 210735Z AUTO 00000KT 3SM BR BKN003 OVC007 20/20 A2974 RMK AO2 P0001
KMPZ 210715Z AUTO 19003KT 3SM BR BKN001 OVC007 20/20 A2975 RMK AO2
KMPZ 210655Z AUTO 16003KT 3SM BR BKN001 OVC007 20/20 A2974 RMK AO2
KMPZ 210635Z AUTO 15003KT 4SM BR BKN007 20/20 A2974 RMK AO2
KMPZ 210615Z AUTO 16004KT 5SM BR SCT001 OVC007 20/20 A2974 RMK AO2
KMPZ 210555Z AUTO 15005KT 7SM SCT002 OVC007 20/20 A2975 RMK AO2
KMPZ 210535Z AUTO 16005KT 5SM BR BKN002 OVC009 20/20 A2975 RMK AO2
KMPZ 210515Z AUTO 16004KT 7SM OVC004 20/20 A2976 RMK AO2
KMPZ 210455Z AUTO 15006KT 10SM OVC004 20/20 A2976 RMK AO2 P0002
KMPZ 210435Z AUTO 15005KT 10SM BKN006 OVC011 20/20 A2977 RMK AO2 P0002
KMPZ 210415Z AUTO 15005KT 10SM SCT004 BKN011 OVC016 20/20 A2977 RMK AO2 P0002
KMPZ 210355Z AUTO 14006KT 10SM SCT011 BKN031 BKN065 20/20 A2977 RMK AO2
KMPZ 210335Z AUTO 14005KT 10SM SCT013 SCT029 BKN065 20/20 A2977 RMK AO2
KMPZ 210315Z AUTO 14005KT 10SM SCT013 BKN030 OVC100 20/20 A2978 RMK AO2
KMPZ 210255Z AUTO 12007KT 10SM -RA SCT041 SCT100 SCT120 20/20 A2977 RMK AO2
KMPZ 210235Z AUTO 12008KT 10SM -RA SCT011 SCT019 BKN055 20/20 A2976 RMK AO2
KMPZ 210215Z AUTO 12007KT 7SM RA SCT018 BKN048 OVC050 20/20 A2976 RMK AO2
KMPZ 210155Z AUTO 12007KT 2 1/2SM RA SCT006 BKN015 OVC021 20/20 A2975 RMK AO2 P0001
KMPZ 210135Z AUTO 12006KT 10SM RA BKN006 BKN010 OVC021 20/20 A2978 RMK AO2 P0001
KMPZ 210115Z AUTO 00000KT 10SM OVC006 20/20 A2978 RMK AO2 P0001
KMPZ 210055Z AUTO 08006KT 10SM RA BKN006 BKN036 OVC060 20/20 A2976 RMK AO2
KMPZ 210035Z AUTO 16004KT 10SM SCT042 BKN065 OVC075 20/20 A2977 RMK AO2
KMPZ 210015Z AUTO 13008KT 10SM SCT065 BKN075 20/20 A2975 RMK AO2
KMPZ 202355Z AUTO 11007KT 10SM CLR 20/20 A2974 RMK AO2
KMPZ 202335Z AUTO 11005KT 10SM CLR 20/20 A2974 RMK AO2
KMPZ 202315Z AUTO 11007KT 10SM CLR 20/20 A2974 RMK AO2
KMPZ 202255Z AUTO 13008KT 10SM CLR 20/20 A2974 RMK AO2 P0001
KMPZ 202235Z AUTO 13009KT 10SM CLR 20/20 A2975 RMK AO2 P0001
KMPZ 202215Z AUTO 12010KT 10SM SCT047 SCT060 SCT085 20/20 A2975 RMK AO2 P0001
KMPZ 202155Z AUTO 15009KT 10SM -RA SCT031 SCT050 BKN065 20/20 A2975 RMK AO2
KMPZ 202135Z AUTO 14006KT 10SM SCT046 SCT055 BKN065 21/20 A2976 RMK AO2
KMPZ 202115Z AUTO 00000KT 10SM -RA SCT011 SCT027 BKN110 20/20 A2975 RMK AO2
KMPZ 202055Z AUTO 14011KT 1 3/4SM +RA BKN010 BKN029 OVC046 20/20 A2975 RMK AO2
KMPZ 202035Z AUTO 23011KT 10SM -RA SCT018 BKN060 OVC090 22/21 A2982 RMK AO2
KMPZ 202015Z AUTO 05006G17KT 5SM -RA SCT004 BKN021 OVC036 21/20 A2978 RMK AO2
KMPZ 201955Z AUTO 25018G29KT 1 1/4SM +RA BKN008 BKN029 OVC046 23/20 A2980 RMK AO2 P0001
KMPZ 201935Z AUTO 00000KT 7SM RA SCT031 BKN046 BKN065 27/22 A2975 RMK AO2 P0001
KMPZ 201915Z AUTO 13008KT 10SM SCT030 SCT036 BKN080 29/21 A2976 RMK AO2 P0001
KMPZ 201855Z AUTO 16006KT 10SM SCT030 SCT038 BKN050 30/22 A2977 RMK AO2
KMPZ 201835Z AUTO 17005KT 10SM SCT028 SCT035 SCT043 30/22 A2978 RMK AO2
KMPZ 201815Z AUTO 14006KT 10SM SCT026 SCT035 30/22 A2979 RMK AO2
KMPZ 201755Z AUTO 14005KT 10SM SCT026 SCT031 29/22 A2980 RMK AO2 P0001
KMPZ 201735Z AUTO 19005KT 10SM SCT026 29/22 A2982 RMK AO2 P0001
KMPZ 201715Z AUTO 14005KT 10SM SCT021 28/22 A2982 RMK AO2 P0001
KMPZ 201655Z AUTO 17004KT 10SM SCT021 SCT026 SCT110 28/22 A2983 RMK AO2
KMPZ 201635Z AUTO 15004KT 10SM SCT021 SCT026 SCT110 27/21 A2985 RMK AO2
KMPZ 201615Z AUTO 00000KT 10SM SCT018 SCT024 27/21 A2986 RMK AO2
KMPZ 201555Z AUTO 15003KT 10SM BKN016 27/21 A2985 RMK AO2
KMPZ 201535Z AUTO 14004KT 10SM SCT016 27/21 A2985 RMK AO2
KMPZ 201515Z AUTO 00000KT 10SM SCT016 26/21 A2985 RMK AO2
KMPZ 201455Z AUTO 11004KT 10SM CLR 26/21 A2985 RMK AO2 P0001
KMPZ 201435Z AUTO 13004KT 10SM CLR 26/20 A2986 RMK AO2
KMPZ 201415Z AUTO 15003KT 10SM CLR 25/20 A2986 RMK AO2
KMPZ 201355Z AUTO 00000KT 10SM CLR 25/21 A2987 RMK AO2
KMPZ 201335Z AUTO 00000KT 10SM CLR 24/21 A2987 RMK AO2
KMPZ 201315Z AUTO 11004KT 10SM CLR 23/22 A2987 RMK AO2
KMPZ 201255Z AUTO 09004KT 10SM SCT025 SCT030 SCT034 22/22 A2987 RMK AO2 P0001
KMPZ 201235Z AUTO 02004KT 10SM SCT025 BKN036 OVC047 21/21 A2989 RMK AO2
KMPZ 201215Z AUTO 36005KT 10SM SCT014 OVC039 21/21 A2988 RMK AO2
KMPZ 201155Z AUTO 00000KT 10SM BKN043 OVC050 21/21 A2988 RMK AO2
KMPZ 201135Z AUTO 11004KT 10SM SCT045 OVC050 20/20 A2988 RMK AO2
KMPZ 201115Z AUTO 00000KT 10SM BKN041 OVC049 20/20 A2988 RMK AO2
KMPZ 201055Z AUTO 10003KT 10SM BKN039 BKN100 20/20 A2988 RMK AO2 P0001
KMPZ 201035Z AUTO 12004KT 7SM SCT100 20/20 A2988 RMK AO2 P0001
KMPZ 201015Z AUTO 13003KT 7SM SCT043 SCT049 BKN100 20/20 A2988 RMK AO2 P0001
KMPZ 200955Z AUTO 00000KT 7SM BKN039 BKN046 OVC100 20/20 A2988 RMK AO2
KMPZ 200935Z AUTO 00000KT 7SM BKN039 BKN075 BKN095 20/20 A2987 RMK AO2
KMPZ 200915Z AUTO 00000KT 5SM BR SCT041 SCT046 BKN075 20/20 A2987 RMK AO2
KMPZ 200855Z AUTO 00000KT 5SM BR SCT041 BKN048 OVC070 20/20 A2988 RMK AO2 P0001
KMPZ 200835Z AUTO 00000KT 5SM BR SCT050 OVC065 20/20 A2988 RMK AO2 P0001
KMPZ 200815Z AUTO 00000KT 7SM SCT048 BKN065 OVC080 20/20 A2987 RMK AO2 P0001
KMPZ 200755Z AUTO 00000KT 5SM BR SCT055 SCT080 20/20 A2987 RMK AO2
KMPZ 200735Z AUTO 00000KT 5SM BR CLR 20/20 A2987 RMK AO2
KMPZ 200715Z AUTO 00000KT 5SM BR SCT065 SCT075 20/20 A2987 RMK AO2
KMPZ 200655Z AUTO 00000KT 4SM BR SCT060 20/20 A2988 RMK AO2 P0001
KMPZ 200635Z AUTO 00000KT 4SM BR CLR 20/20 A2988 RMK AO2 P0001
KMPZ 200615Z AUTO 00000KT 5SM BR CLR 21/21 A2989 RMK AO2 P0001
KMPZ 200555Z AUTO 18003KT 7SM SCT050 21/21 A2989 RMK AO2
KMPZ 200535Z AUTO 17003KT 4SM BR SCT055 21/21 A2991 RMK AO2
KMPZ 200515Z AUTO 00000KT 1 3/4SM BR VV007 21/21 A2992 RMK AO2
KMPZ 200455Z AUTO 00000KT 4SM BR CLR 21/21 A2992 RMK AO2 P0001
KMPZ 200435Z AUTO 26005KT 10SM SCT015 SCT055 BKN070 21/21 A2993 RMK AO2 P0001
KMPZ 200415Z AUTO 25003KT 10SM OVC015 22/22 A2993 RMK AO2
KMPZ 200355Z AUTO 00000KT 7SM SCT008 OVC015 22/22 A2992 RMK AO2 P0001
KMPZ 200335Z AUTO 24003KT 4SM BR BKN008 BKN013 21/21 A2992 RMK AO2 P0001
KMPZ 200315Z AUTO 23005KT 5SM BR SCT008 21/21 A2991 RMK AO2 P0001
KMPZ 200255Z AUTO 00000KT 10SM CLR 21/21 A2989 RMK AO2
KMPZ 200235Z AUTO 05004KT 7SM CLR 21/21 A2989 RMK AO2
KMPZ 200215Z AUTO 00000KT 7SM CLR 21/21 A2989 RMK AO2
KMPZ 200155Z AUTO 25003KT 10SM CLR 22/22 A2989 RMK AO2 P0001
KMPZ 200135Z AUTO 00000KT 10SM CLR 22/22 A2988 RMK AO2
KMPZ 200115Z AUTO 00000KT 10SM CLR 23/22 A2988 RMK AO2
KMPZ 200055Z AUTO 01004KT 10SM SCT009 23/23 A2988 RMK AO2 P0001
KMPZ 200035Z AUTO 01004KT 10SM SCT009 23/22 A2989 RMK AO2
KMPZ 200015Z AUTO 34003KT 10SM SCT007 23/22 A2988 RMK AO2